Time;durP1;ratioP1;P1;durP2;ratioP2;P2;SDS_P1;SDS_P2;PMS_P1;PMS_P2;Temp;Humidity;BMP_temperature;BMP_pressure;BME280_temperature;BME280_humidity;BME280_pressure;Samples;Min_cycle;Max_cycle;Signal;HPM_P1;HPM_P2
2022/07/02 00:02:19;;;;;;;6.38;3.00;;;20.60;99.10;;;;;;5090847;28;20032;-75
2022/07/02 00:04:48;;;;;;;8.68;3.08;;;20.50;99.30;;;;;;5091535;28;20032;-75
2022/07/02 00:07:14;;;;;;;7.25;2.83;;;20.50;99.20;;;;;;5085083;28;20105;-75
2022/07/02 00:09:41;;;;;;;4.90;2.55;;;20.50;99.40;;;;;;5091486;28;20422;-76
2022/07/02 00:12:09;;;;;;;7.53;2.60;;;20.40;99.30;;;;;;5087578;28;20032;-74
2022/07/02 00:14:36;;;;;;;7.65;2.90;;;20.40;99.30;;;;;;5090022;28;20036;-75
2022/07/02 00:17:03;;;;;;;6.47;2.35;;;20.30;99.40;;;;;;5090561;28;20117;-76
2022/07/02 00:19:30;;;;;;;6.57;2.42;;;20.30;99.20;;;;;;5094567;28;20073;-75
2022/07/02 00:21:58;;;;;;;5.40;2.38;;;20.40;99.10;;;;;;5092592;28;20038;-74
2022/07/02 00:24:23;;;;;;;4.20;2.30;;;20.60;98.40;;;;;;5093499;28;20051;-75
2022/07/02 00:26:57;;;;;;;5.13;2.20;;;20.50;98.40;;;;;;5094868;28;20071;-74
2022/07/02 00:29:44;;;;;;;5.30;2.60;;;20.50;98.40;;;;;;5092798;28;20032;-75
2022/07/02 00:32:10;;;;;;;6.75;2.55;;;20.50;98.40;;;;;;5092824;28;20039;-75
2022/07/02 00:34:39;;;;;;;5.90;2.15;;;20.50;98.30;;;;;;5095068;28;20036;-75
2022/07/02 00:37:09;;;;;;;5.20;1.80;;;20.50;98.10;;;;;;5094332;28;20573;-75
2022/07/02 00:39:35;;;;;;;8.77;2.70;;;20.40;98.50;;;;;;5095028;28;20058;-75
2022/07/02 00:42:05;;;;;;;5.30;2.83;;;20.30;98.60;;;;;;5094369;28;20123;-75
2022/07/02 00:44:31;;;;;;;6.90;2.50;;;20.20;98.80;;;;;;5086916;28;20474;-75
2022/07/02 00:47:08;;;;;;;7.72;2.50;;;20.20;98.80;;;;;;5085818;28;20539;-75
2022/07/02 00:49:35;;;;;;;9.45;2.67;;;20.10;98.90;;;;;;5089307;28;20032;-77
2022/07/02 00:52:03;;;;;;;7.68;2.40;;;20.00;99.10;;;;;;5089627;28;20040;-75
2022/07/02 00:54:29;;;;;;;11.35;2.67;;;20.10;99.00;;;;;;5089907;28;20089;-74
2022/07/02 00:56:54;;;;;;;5.60;2.13;;;20.00;99.10;;;;;;5089062;28;20141;-75
2022/07/02 00:59:22;;;;;;;4.45;2.10;;;20.00;98.90;;;;;;5089404;28;20110;-75
2022/07/02 01:01:48;;;;;;;6.20;2.15;;;20.00;98.70;;;;;;5089113;28;20116;-75
2022/07/02 01:04:15;;;;;;;4.93;2.25;;;20.00;98.90;;;;;;5081314;28;20462;-74
2022/07/02 01:06:42;;;;;;;6.03;2.50;;;20.00;98.80;;;;;;5083380;28;20024;-75
2022/07/02 01:11:57;;;;;;;3.78;1.90;;;19.90;98.60;;;;;;5088974;28;20039;-75
2022/07/02 01:14:24;;;;;;;5.65;1.88;;;20.00;97.90;;;;;;5088016;28;20359;-74
2022/07/02 01:16:50;;;;;;;4.25;2.10;;;19.90;98.30;;;;;;5087799;28;20115;-75
2022/07/02 01:19:20;;;;;;;6.32;1.63;;;19.90;98.60;;;;;;5087334;28;20111;-75
2022/07/02 01:22:31;;;;;;;5.05;2.03;;;20.00;98.00;;;;;;5085692;28;20028;-74
2022/07/02 01:24:56;;;;;;;5.22;2.10;;;19.90;98.10;;;;;;5065381;28;20060;-76
2022/07/02 01:27:23;;;;;;;5.47;1.80;;;19.80;98.40;;;;;;5065838;28;20125;-75
2022/07/02 01:29:49;;;;;;;4.85;2.50;;;19.90;97.60;;;;;;5077763;28;20944;-75
2022/07/02 01:32:15;;;;;;;5.35;2.53;;;19.90;97.60;;;;;;5089019;28;20099;-75
2022/07/02 01:34:43;;;;;;;6.20;2.22;;;19.90;97.20;;;;;;5088556;28;20115;-75
2022/07/02 01:37:21;;;;;;;4.28;1.70;;;20.00;97.00;;;;;;5084642;28;20035;-76
2022/07/02 01:39:48;;;;;;;3.85;1.90;;;19.90;96.60;;;;;;5085554;28;20658;-75
2022/07/02 01:42:14;;;;;;;5.82;1.85;;;20.00;96.80;;;;;;5087292;28;20527;-75
2022/07/02 01:44:41;;;;;;;4.53;1.63;;;19.90;97.20;;;;;;5089069;28;20931;-75
2022/07/02 01:47:08;;;;;;;3.90;1.65;;;19.60;97.20;;;;;;5088541;28;20032;-75
2022/07/02 01:49:35;;;;;;;7.90;1.85;;;19.60;97.00;;;;;;5080828;28;20497;-74
2022/07/02 01:52:00;;;;;;;4.30;1.90;;;19.80;97.00;;;;;;5088632;28;20093;-75
2022/07/02 01:54:26;;;;;;;3.92;1.77;;;19.70;97.30;;;;;;5087057;28;20471;-75
2022/07/02 01:56:52;;;;;;;7.25;1.60;;;19.80;97.10;;;;;;5088705;28;20036;-75
2022/07/02 01:59:18;;;;;;;7.35;1.60;;;19.60;97.20;;;;;;5088690;28;20020;-74
2022/07/02 02:01:44;;;;;;;3.35;1.85;;;19.70;96.90;;;;;;5088476;28;20516;-74
2022/07/02 02:04:10;;;;;;;4.32;1.65;;;19.60;97.40;;;;;;5088662;28;20024;-75
2022/07/02 02:06:37;;;;;;;3.45;1.83;;;19.60;96.90;;;;;;5082556;28;20024;-74
2022/07/02 02:09:03;;;;;;;7.75;1.92;;;19.50;97.20;;;;;;5086751;28;20070;-75
2022/07/02 02:11:29;;;;;;;3.67;1.85;;;19.40;97.30;;;;;;5083207;28;20382;-74
2022/07/02 02:13:58;;;;;;;9.38;1.95;;;19.40;97.40;;;;;;5088256;28;20036;-75
2022/07/02 02:16:28;;;;;;;4.32;1.50;;;19.30;97.60;;;;;;5088380;28;20064;-75
2022/07/02 02:18:56;;;;;;;4.55;1.42;;;19.40;97.20;;;;;;5088124;28;20113;-75
2022/07/02 02:21:24;;;;;;;5.03;1.75;;;19.40;97.50;;;;;;5088004;28;20030;-74
2022/07/02 02:23:50;;;;;;;5.20;1.35;;;19.30;97.40;;;;;;5084512;28;20109;-74
2022/07/02 02:26:16;;;;;;;4.20;1.38;;;19.50;96.70;;;;;;5088116;28;20035;-75
2022/07/02 02:28:42;;;;;;;3.72;1.63;;;19.60;96.20;;;;;;5082078;28;20497;-74
2022/07/02 02:31:07;;;;;;;4.70;1.40;;;19.70;95.70;;;;;;5092188;28;20087;-74
2022/07/02 02:33:33;;;;;;;4.50;1.58;;;19.80;95.70;;;;;;5092168;28;20028;-74
2022/07/02 02:35:59;;;;;;;4.65;1.45;;;19.60;96.00;;;;;;5092526;28;20038;-74
2022/07/02 02:38:26;;;;;;;2.63;1.20;;;19.60;96.00;;;;;;5092460;28;20056;-74
2022/07/02 02:40:51;;;;;;;2.55;1.27;;;19.70;95.40;;;;;;5090222;28;20089;-74
2022/07/02 02:43:18;;;;;;;2.60;1.13;;;19.80;95.30;;;;;;5092213;28;20036;-74
2022/07/02 02:45:43;;;;;;;2.85;1.20;;;19.80;95.10;;;;;;5085793;28;20438;-74
2022/07/02 02:48:09;;;;;;;3.10;1.10;;;19.90;94.90;;;;;;5092630;28;20028;-74
2022/07/02 02:50:35;;;;;;;3.15;1.15;;;20.10;94.30;;;;;;5092439;28;20032;-74
2022/07/02 02:53:01;;;;;;;4.25;1.35;;;20.00;94.60;;;;;;5092487;28;20031;-74
2022/07/02 02:55:27;;;;;;;2.83;1.20;;;19.80;94.90;;;;;;5091839;28;20028;-74
2022/07/02 02:57:53;;;;;;;3.80;1.15;;;19.90;94.30;;;;;;5092458;28;20067;-74
2022/07/02 03:00:18;;;;;;;4.53;1.35;;;20.00;94.20;;;;;;5089641;28;20053;-72
2022/07/02 03:02:44;;;;;;;2.55;1.20;;;19.80;94.60;;;;;;5082626;28;20494;-73
2022/07/02 03:05:10;;;;;;;2.83;1.40;;;19.90;94.40;;;;;;5081822;28;20043;-73
2022/07/02 03:07:35;;;;;;;4.85;1.58;;;20.10;93.80;;;;;;5086474;28;20024;-73
2022/07/02 03:10:01;;;;;;;1.83;1.00;;;20.00;94.10;;;;;;5083724;28;20043;-73
2022/07/02 03:12:27;;;;;;;3.38;0.82;;;20.10;93.70;;;;;;5086188;28;20152;-73
2022/07/02 03:14:52;;;;;;;4.75;1.05;;;20.10;93.30;;;;;;5085435;28;20032;-73
2022/07/02 03:17:18;;;;;;;3.33;1.10;;;20.10;93.50;;;;;;5081431;28;20028;-73
2022/07/02 03:19:45;;;;;;;3.13;1.10;;;20.10;93.80;;;;;;5082451;28;20032;-75
2022/07/02 03:22:11;;;;;;;2.63;1.48;;;20.00;94.00;;;;;;5083177;28;20035;-74
2022/07/02 03:24:37;;;;;;;4.32;1.42;;;19.90;94.40;;;;;;5086745;28;20036;-73
2022/07/02 03:27:03;;;;;;;5.25;1.35;;;19.50;94.70;;;;;;5086241;28;20134;-73
2022/07/02 03:29:28;;;;;;;3.40;1.00;;;19.50;95.00;;;;;;5086528;28;20107;-73
2022/07/02 03:31:54;;;;;;;4.00;1.45;;;19.50;94.60;;;;;;5086353;28;20028;-73
2022/07/02 03:34:20;;;;;;;2.67;1.23;;;19.30;95.30;;;;;;5082738;28;20482;-73
2022/07/02 03:36:45;;;;;;;3.08;1.05;;;19.40;95.10;;;;;;5082605;28;20103;-73
2022/07/02 03:39:11;;;;;;;4.15;1.40;;;19.20;95.20;;;;;;5085253;28;20020;-73
2022/07/02 03:41:37;;;;;;;3.42;1.33;;;19.20;95.10;;;;;;5086186;28;20505;-73
2022/07/02 03:44:02;;;;;;;2.13;1.35;;;19.30;95.30;;;;;;5086139;28;20114;-73
2022/07/02 03:46:28;;;;;;;3.47;1.35;;;19.10;95.40;;;;;;5086179;28;20085;-73
2022/07/02 03:48:54;;;;;;;5.90;1.65;;;19.00;95.70;;;;;;5086703;28;20072;-73
2022/07/02 03:51:20;;;;;;;2.38;1.27;;;19.00;95.80;;;;;;5086605;28;20024;-73
2022/07/02 03:53:46;;;;;;;3.85;1.10;;;19.00;95.40;;;;;;5079815;28;20039;-73
2022/07/02 03:56:11;;;;;;;1.98;0.85;;;19.20;94.70;;;;;;5090374;28;20027;-73
2022/07/02 03:58:37;;;;;;;3.00;1.20;;;19.40;94.70;;;;;;5087700;28;20299;-74
2022/07/02 04:01:03;;;;;;;2.55;1.20;;;19.30;95.00;;;;;;5087263;28;20066;-73
2022/07/02 04:03:28;;;;;;;2.45;1.00;;;19.50;94.30;;;;;;5083759;28;20430;-73
2022/07/02 04:05:54;;;;;;;4.47;1.05;;;19.50;94.50;;;;;;5086830;28;20048;-74
2022/07/02 04:08:20;;;;;;;2.55;0.90;;;19.40;94.70;;;;;;5086688;28;20496;-73
2022/07/02 04:10:45;;;;;;;4.13;1.20;;;19.30;94.80;;;;;;5080990;28;20461;-73
2022/07/02 04:13:12;;;;;;;4.35;1.35;;;19.60;94.30;;;;;;5086600;28;20036;-73
2022/07/02 04:15:37;;;;;;;3.20;1.23;;;19.50;94.60;;;;;;5086727;28;20080;-73
2022/07/02 04:18:03;;;;;;;2.08;1.02;;;19.40;94.70;;;;;;5086857;28;20036;-73
2022/07/02 04:20:29;;;;;;;2.50;1.13;;;19.50;94.80;;;;;;5086128;28;20040;-73
2022/07/02 04:22:54;;;;;;;2.35;1.27;;;19.40;95.00;;;;;;5086332;28;20043;-73
2022/07/02 04:25:20;;;;;;;1.88;1.10;;;19.30;95.30;;;;;;5085831;28;21220;-74
2022/07/02 04:27:45;;;;;;;2.47;1.00;;;19.20;95.40;;;;;;5082671;28;20104;-74
2022/07/02 04:30:12;;;;;;;3.17;1.55;;;19.30;94.40;;;;;;5085866;28;20059;-74
2022/07/02 04:32:37;;;;;;;3.78;1.20;;;19.20;95.40;;;;;;5085189;28;20031;-74
2022/07/02 04:35:04;;;;;;;2.70;1.35;;;18.90;96.10;;;;;;5085336;28;20016;-74
2022/07/02 04:37:29;;;;;;;5.00;1.77;;;18.70;96.40;;;;;;5086367;28;20461;-74
2022/07/02 04:39:55;;;;;;;5.88;1.40;;;18.80;96.20;;;;;;5086292;28;20107;-74
2022/07/02 04:42:21;;;;;;;2.25;0.93;;;18.80;96.40;;;;;;5086134;28;20066;-74
2022/07/02 04:44:46;;;;;;;1.90;1.05;;;18.80;96.50;;;;;;5085905;28;20036;-74
2022/07/02 04:47:12;;;;;;;1.90;0.98;;;19.10;95.00;;;;;;5085704;28;20433;-73
2022/07/02 04:49:38;;;;;;;2.50;0.75;;;19.30;94.90;;;;;;5086097;28;20385;-74
2022/07/02 04:52:04;;;;;;;2.30;1.15;;;19.40;94.50;;;;;;5086390;28;20573;-73
2022/07/02 04:54:29;;;;;;;3.08;0.90;;;19.40;94.70;;;;;;5089232;28;20483;-73
2022/07/02 04:56:55;;;;;;;3.33;1.27;;;19.40;94.40;;;;;;5088697;28;20035;-73
2022/07/02 04:59:21;;;;;;;4.65;1.10;;;19.50;94.70;;;;;;5089162;28;20032;-73
2022/07/02 05:01:46;;;;;;;2.30;0.90;;;19.50;94.10;;;;;;5081999;28;20227;-73
2022/07/02 05:04:12;;;;;;;4.32;1.20;;;19.60;94.00;;;;;;5085777;28;20036;-74
2022/07/02 05:06:37;;;;;;;1.52;0.75;;;19.60;94.20;;;;;;5088756;28;20043;-74
2022/07/02 05:09:03;;;;;;;1.55;0.60;;;19.80;93.70;;;;;;5088717;28;20448;-73
2022/07/02 05:11:29;;;;;;;1.75;1.00;;;19.90;93.20;;;;;;5088046;28;20058;-73
2022/07/02 05:13:55;;;;;;;2.38;0.82;;;20.00;93.30;;;;;;5088776;28;20056;-74
2022/07/02 05:16:21;;;;;;;2.05;0.73;;;20.00;93.00;;;;;;5088984;28;20056;-73
2022/07/02 05:18:47;;;;;;;1.13;0.82;;;20.10;93.10;;;;;;5079244;28;20024;-74
2022/07/02 05:21:13;;;;;;;1.83;0.80;;;20.00;93.30;;;;;;5088449;28;20043;-73
2022/07/02 05:23:38;;;;;;;0.82;0.60;;;20.00;93.20;;;;;;5084297;28;20069;-73
2022/07/02 05:26:04;;;;;;;2.65;1.10;;;20.00;93.00;;;;;;5084249;28;20040;-73
2022/07/02 05:28:30;;;;;;;0.93;0.60;;;20.00;92.90;;;;;;5084779;28;20444;-73
2022/07/02 05:30:55;;;;;;;2.15;1.00;;;20.10;92.90;;;;;;5084664;28;20044;-73
2022/07/02 05:33:21;;;;;;;4.07;1.40;;;20.00;93.40;;;;;;5084507;28;20036;-73
2022/07/02 05:35:47;;;;;;;2.78;0.80;;;20.00;93.00;;;;;;5082995;28;20036;-74
2022/07/02 05:38:13;;;;;;;2.45;1.30;;;20.10;93.30;;;;;;5087456;28;20028;-73
2022/07/02 05:40:38;;;;;;;3.30;0.90;;;20.00;93.60;;;;;;5087268;28;20032;-74
2022/07/02 05:43:04;;;;;;;2.72;1.23;;;20.10;93.20;;;;;;5087849;28;20347;-74
2022/07/02 05:45:29;;;;;;;2.03;0.90;;;20.20;92.80;;;;;;5087060;28;20379;-74
2022/07/02 05:47:55;;;;;;;4.57;1.15;;;20.20;93.00;;;;;;5088208;28;20101;-74
2022/07/02 05:50:21;;;;;;;3.47;0.85;;;20.30;93.00;;;;;;5088296;28;20036;-74
2022/07/02 05:52:47;;;;;;;1.88;0.93;;;20.40;92.60;;;;;;5081983;28;20024;-73
2022/07/02 05:55:12;;;;;;;4.22;1.27;;;20.40;92.60;;;;;;5083878;28;20023;-74
2022/07/02 05:57:38;;;;;;;1.17;0.80;;;20.40;92.70;;;;;;5087225;28;20073;-74
2022/07/02 06:00:09;;;;;;;2.03;0.70;;;20.40;92.90;;;;;;5087576;28;20500;-74
2022/07/02 06:02:35;;;;;;;2.63;1.00;;;20.50;92.70;;;;;;5084088;28;20020;-74
2022/07/02 06:07:38;;;;;;;1.77;1.00;;;20.60;92.60;;;;;;5093013;28;20068;-75
2022/07/02 06:07:50;;;;;;;2.65;0.93;;;20.60;92.80;;;;;;5088528;28;20048;-73
2022/07/02 06:10:19;;;;;;;1.52;0.80;;;20.70;92.50;;;;;;5082550;28;20028;-72
2022/07/02 06:12:49;;;;;;;3.55;1.30;;;20.80;92.40;;;;;;5083873;28;20036;-73
2022/07/02 06:15:16;;;;;;;2.80;1.10;;;20.80;93.00;;;;;;5077844;28;20039;-73
2022/07/02 06:17:41;;;;;;;2.08;1.00;;;20.90;92.40;;;;;;5081115;28;20494;-73
2022/07/02 06:20:08;;;;;;;2.38;1.30;;;20.90;92.30;;;;;;5083598;28;20047;-72
2022/07/02 06:22:33;;;;;;;2.33;1.05;;;20.80;92.20;;;;;;5083754;28;20349;-72
2022/07/02 06:24:59;;;;;;;4.80;1.17;;;20.90;92.20;;;;;;5082129;28;20443;-73
2022/07/02 06:27:25;;;;;;;2.47;1.15;;;21.00;91.90;;;;;;5079833;28;20582;-73
2022/07/02 06:29:50;;;;;;;3.10;1.33;;;21.00;92.10;;;;;;5082880;28;20056;-73
2022/07/02 06:32:16;;;;;;;4.13;1.80;;;21.00;92.10;;;;;;5083136;28;20036;-73
2022/07/02 06:34:45;;;;;;;5.43;1.40;;;21.00;92.60;;;;;;5078728;28;20401;-73
2022/07/02 06:37:11;;;;;;;4.07;1.10;;;21.00;92.30;;;;;;5082585;28;20541;-73
2022/07/02 06:39:37;;;;;;;4.32;1.00;;;21.10;92.00;;;;;;5083052;28;20035;-73
2022/07/02 06:44:49;;;;;;;2.75;1.05;;;21.30;91.60;;;;;;5076337;28;20513;-73
2022/07/02 06:47:15;;;;;;;1.75;0.88;;;21.30;91.60;;;;;;5080768;28;20036;-73
2022/07/02 06:49:42;;;;;;;2.38;0.93;;;21.30;91.60;;;;;;5083383;28;20024;-73
2022/07/02 06:52:08;;;;;;;2.13;1.10;;;21.30;92.20;;;;;;5082418;28;20024;-72
2022/07/02 06:54:35;;;;;;;3.08;1.35;;;21.40;91.70;;;;;;5082821;28;20495;-73
2022/07/02 06:57:01;;;;;;;2.70;1.10;;;21.50;91.60;;;;;;5082863;28;20032;-73
2022/07/02 06:59:26;;;;;;;1.30;0.80;;;21.60;91.60;;;;;;5079083;28;20158;-73
2022/07/02 07:01:52;;;;;;;1.98;0.90;;;21.70;91.30;;;;;;5079069;28;20123;-73
2022/07/02 07:04:18;;;;;;;1.67;0.90;;;21.90;91.40;;;;;;5082485;28;20035;-73
2022/07/02 07:09:12;;;;;;;5.30;1.63;;;22.30;91.10;;;;;;5082839;28;20059;-73
2022/07/02 07:11:37;;;;;;;1.90;1.10;;;22.60;90.90;;;;;;5083017;28;20486;-73
2022/07/02 07:14:03;;;;;;;4.20;1.48;;;22.90;90.60;;;;;;5083413;28;20187;-73
2022/07/02 07:16:29;;;;;;;3.00;1.00;;;23.10;90.30;;;;;;5077669;28;20021;-73
2022/07/02 07:18:57;;;;;;;2.00;1.08;;;23.40;90.40;;;;;;5082092;28;20282;-73
2022/07/02 07:21:22;;;;;;;2.15;0.90;;;23.70;90.50;;;;;;5081279;28;20122;-73
2022/07/02 07:23:48;;;;;;;1.88;0.90;;;23.80;89.90;;;;;;5081172;28;20114;-72
2022/07/02 07:26:13;;;;;;;1.83;1.00;;;24.10;88.60;;;;;;5082998;28;20038;-73
2022/07/02 07:28:39;;;;;;;3.78;0.95;;;24.20;88.60;;;;;;5088923;28;20028;-73
2022/07/02 07:31:05;;;;;;;3.35;1.10;;;24.40;88.80;;;;;;5087760;28;20089;-73
2022/07/02 07:33:30;;;;;;;2.50;1.25;;;24.70;88.70;;;;;;5087837;28;20032;-73
2022/07/02 07:35:57;;;;;;;2.03;0.88;;;25.30;88.90;;;;;;5090900;28;20473;-73
2022/07/02 07:38:23;;;;;;;2.15;0.93;;;26.10;87.60;;;;;;5090594;28;20118;-73
2022/07/02 07:40:48;;;;;;;3.30;0.90;;;26.40;86.80;;;;;;5091119;28;20123;-73
2022/07/02 07:43:14;;;;;;;42.05;3.67;;;27.20;84.90;;;;;;5090842;28;20081;-73
2022/07/02 07:45:40;;;;;;;3.13;1.20;;;27.40;84.80;;;;;;5090771;28;20488;-73
2022/07/02 07:48:05;;;;;;;2.13;1.00;;;27.40;83.20;;;;;;5088991;28;20038;-73
2022/07/02 07:50:31;;;;;;;2.03;1.23;;;27.50;84.10;;;;;;5087311;28;20043;-73
2022/07/02 07:52:57;;;;;;;2.33;1.20;;;27.50;83.60;;;;;;5091172;28;20115;-73
2022/07/02 07:55:22;;;;;;;3.10;0.82;;;27.20;84.10;;;;;;5090639;28;20040;-72
2022/07/02 07:57:48;;;;;;;2.35;1.10;;;27.00;84.30;;;;;;5091252;28;20070;-74
2022/07/02 08:00:15;;;;;;;2.75;0.90;;;26.50;84.30;;;;;;5090692;28;20378;-74
2022/07/02 08:02:40;;;;;;;2.63;1.05;;;26.50;84.20;;;;;;5091141;28;20043;-73
2022/07/02 08:05:07;;;;;;;2.92;1.40;;;26.50;84.60;;;;;;5090487;28;20024;-74
2022/07/02 08:07:39;;;;;;;1.98;1.20;;;26.50;84.30;;;;;;5088555;28;20033;-73
2022/07/02 08:10:07;;;;;;;4.10;1.07;;;26.50;84.20;;;;;;5087498;28;20028;-73
2022/07/02 08:12:32;;;;;;;7.30;1.92;;;26.50;84.10;;;;;;5089880;28;20412;-74
2022/07/02 08:14:59;;;;;;;3.33;1.00;;;26.60;83.90;;;;;;5088310;28;20035;-73
2022/07/02 08:17:26;;;;;;;1.95;0.93;;;26.50;84.30;;;;;;5089612;28;20040;-73
2022/07/02 08:19:51;;;;;;;2.03;1.00;;;26.50;84.00;;;;;;5090209;28;20695;-73
2022/07/02 08:22:19;;;;;;;2.22;1.00;;;26.60;84.70;;;;;;5090782;28;20044;-73
2022/07/02 08:24:45;;;;;;;2.10;1.20;;;26.80;83.00;;;;;;5085246;28;20028;-73
2022/07/02 08:27:10;;;;;;;4.60;1.30;;;26.90;82.30;;;;;;5089659;28;20047;-72
2022/07/02 08:29:36;;;;;;;1.58;0.90;;;27.00;82.80;;;;;;5090970;28;20093;-73
2022/07/02 08:32:04;;;;;;;3.88;1.40;;;27.30;82.60;;;;;;5090913;28;20055;-72
2022/07/02 08:34:30;;;;;;;2.58;0.98;;;27.10;82.50;;;;;;5090372;28;20036;-73
2022/07/02 08:36:56;;;;;;;3.92;1.30;;;27.00;83.10;;;;;;5090188;28;20531;-72
2022/07/02 08:39:22;;;;;;;2.78;1.08;;;27.20;83.30;;;;;;5087595;28;20096;-72
2022/07/02 08:41:49;;;;;;;5.22;1.45;;;27.00;83.10;;;;;;5083445;28;20044;-72
2022/07/02 08:44:16;;;;;;;3.30;1.23;;;27.20;83.80;;;;;;5087552;28;20036;-72
2022/07/02 08:46:43;;;;;;;3.40;1.20;;;27.40;83.10;;;;;;5087062;28;20485;-72
2022/07/02 08:49:11;;;;;;;2.22;1.05;;;27.30;83.10;;;;;;5085344;28;20036;-72
2022/07/02 08:51:36;;;;;;;2.70;1.50;;;27.20;82.40;;;;;;5085550;28;20608;-72
2022/07/02 08:54:02;;;;;;;3.88;1.33;;;26.80;82.40;;;;;;5087199;28;20107;-72
2022/07/02 08:56:31;;;;;;;2.33;1.23;;;27.10;83.50;;;;;;5087465;28;20035;-72
2022/07/02 08:58:57;;;;;;;3.58;1.17;;;27.40;83.60;;;;;;5085549;28;20032;-72
2022/07/02 09:01:24;;;;;;;4.00;1.25;;;27.40;82.30;;;;;;5087057;28;20043;-72
2022/07/02 09:03:51;;;;;;;5.00;1.10;;;27.40;82.70;;;;;;5086359;28;20435;-72
2022/07/02 09:06:19;;;;;;;2.30;1.10;;;27.80;82.90;;;;;;5085386;28;20040;-72
2022/07/02 09:08:45;;;;;;;2.72;1.20;;;28.00;82.50;;;;;;5085448;28;20022;-72
2022/07/02 09:11:11;;;;;;;3.97;1.30;;;27.90;81.30;;;;;;5086418;28;20382;-72
2022/07/02 09:13:38;;;;;;;2.60;1.30;;;27.00;82.40;;;;;;5086734;28;20024;-72
2022/07/02 09:16:05;;;;;;;4.03;1.30;;;27.70;81.80;;;;;;5083463;28;20032;-72
2022/07/02 09:18:31;;;;;;;4.63;1.30;;;27.80;82.60;;;;;;5086750;28;20067;-72
2022/07/02 09:20:57;;;;;;;4.15;1.50;;;28.10;82.90;;;;;;5086910;28;20052;-72
2022/07/02 09:23:23;;;;;;;2.63;1.15;;;28.40;83.60;;;;;;5086538;28;20039;-72
2022/07/02 09:25:50;;;;;;;1.88;1.17;;;28.20;81.40;;;;;;5086730;28;20428;-72
2022/07/02 09:28:17;;;;;;;6.32;1.70;;;28.30;82.20;;;;;;5086532;28;20067;-72
2022/07/02 09:30:43;;;;;;;2.17;1.02;;;28.10;82.80;;;;;;5086208;28;20048;-72
2022/07/02 09:33:28;;;;;;;4.20;1.38;;;28.10;82.20;;;;;;5077886;28;20034;-72
2022/07/02 09:35:54;;;;;;;2.13;1.10;;;28.30;82.50;;;;;;5085264;28;20063;-72
2022/07/02 09:38:20;;;;;;;4.47;1.70;;;28.50;81.90;;;;;;5085708;28;20492;-72
2022/07/02 09:40:53;;;;;;;3.00;1.40;;;28.10;81.20;;;;;;5084811;28;20028;-72
2022/07/02 09:43:29;;;;;;;4.40;1.35;;;28.10;81.40;;;;;;5086224;28;20036;-72
2022/07/02 09:45:57;;;;;;;4.53;1.35;;;28.40;81.50;;;;;;5086284;28;20036;-72
2022/07/02 09:48:23;;;;;;;2.75;1.48;;;28.60;82.70;;;;;;5083951;28;20042;-72
2022/07/02 09:50:49;;;;;;;2.63;1.60;;;29.00;81.10;;;;;;5078013;28;20027;-73
2022/07/02 09:53:15;;;;;;;2.85;1.40;;;29.10;81.60;;;;;;5085709;28;20213;-72
2022/07/02 09:55:48;;;;;;;3.20;1.42;;;28.80;80.60;;;;;;5085512;28;20061;-72
2022/07/02 09:58:14;;;;;;;6.85;1.60;;;28.90;80.90;;;;;;5085541;28;20379;-73
2022/07/02 10:00:45;;;;;;;6.25;1.92;;;29.30;81.40;;;;;;5085526;28;20030;-72
2022/07/02 10:03:10;;;;;;;4.65;1.42;;;29.30;80.30;;;;;;5085380;28;20118;-73
2022/07/02 10:05:36;;;;;;;4.00;1.48;;;29.60;80.70;;;;;;5085682;28;20131;-73
2022/07/02 10:08:04;;;;;;;4.75;1.73;;;29.70;81.40;;;;;;5074390;28;20040;-72
2022/07/02 10:10:41;;;;;;;5.30;1.42;;;29.60;80.10;;;;;;5084394;28;20028;-73
2022/07/02 10:13:10;;;;;;;2.28;1.27;;;29.50;80.10;;;;;;5086053;28;20039;-72
2022/07/02 10:15:42;;;;;;;6.00;1.88;;;29.40;79.30;;;;;;5085513;28;20482;-72
2022/07/02 10:18:08;;;;;;;3.50;1.45;;;29.40;80.50;;;;;;5085915;28;20036;-73
2022/07/02 10:20:35;;;;;;;3.70;1.33;;;29.80;80.70;;;;;;5084968;28;20115;-73
2022/07/02 10:23:03;;;;;;;3.42;1.30;;;29.70;79.50;;;;;;5085295;28;20046;-72
2022/07/02 10:25:30;;;;;;;2.30;1.25;;;30.00;79.00;;;;;;5083787;28;20131;-73
2022/07/02 10:27:56;;;;;;;4.13;1.77;;;29.70;78.00;;;;;;5085273;28;20093;-73
2022/07/02 10:30:32;;;;;;;6.03;1.75;;;30.00;79.90;;;;;;5084288;28;20047;-72
2022/07/02 10:33:24;;;;;;;3.35;1.60;;;30.30;78.50;;;;;;5084779;28;20377;-74
2022/07/02 10:35:50;;;;;;;4.00;1.63;;;30.40;80.10;;;;;;5084766;28;20046;-73
2022/07/02 10:38:33;;;;;;;3.28;1.20;;;30.60;78.50;;;;;;5084109;28;20059;-72
2022/07/02 10:41:00;;;;;;;4.15;1.55;;;30.10;78.90;;;;;;5078225;28;20039;-72
2022/07/02 10:43:29;;;;;;;2.85;1.20;;;30.50;78.10;;;;;;5081614;28;20031;-72
2022/07/02 10:46:01;;;;;;;2.72;1.50;;;30.50;78.50;;;;;;5082687;28;20068;-73
2022/07/02 10:48:27;;;;;;;2.70;1.23;;;30.60;78.40;;;;;;5083010;28;20119;-72
2022/07/02 10:50:57;;;;;;;4.57;1.85;;;30.90;78.10;;;;;;5082343;28;20099;-72
2022/07/02 10:53:24;;;;;;;2.60;1.30;;;30.80;79.30;;;;;;5082223;28;20482;-72
2022/07/02 10:55:58;;;;;;;3.33;1.42;;;31.20;77.90;;;;;;5080781;28;20105;-72
2022/07/02 10:58:26;;;;;;;3.90;1.65;;;31.10;77.20;;;;;;5077374;28;20038;-73
2022/07/02 11:00:53;;;;;;;4.50;1.70;;;31.40;77.90;;;;;;5081834;28;20030;-72
2022/07/02 11:03:21;;;;;;;6.05;1.60;;;31.20;77.70;;;;;;5081422;28;20490;-72
2022/07/02 11:05:58;;;;;;;2.10;1.13;;;31.50;78.00;;;;;;5082691;28;20071;-72
2022/07/02 11:08:43;;;;;;;3.20;1.80;;;31.20;77.20;;;;;;5074428;28;20045;-72
2022/07/02 11:11:20;;;;;;;3.75;1.98;;;31.50;78.70;;;;;;5082618;28;20028;-72
2022/07/02 11:13:55;;;;;;;3.08;1.27;;;31.50;76.70;;;;;;5082772;28;20114;-72
2022/07/02 11:16:26;;;;;;;6.18;2.40;;;31.30;76.70;;;;;;5076660;28;20028;-72
2022/07/02 11:18:53;;;;;;;4.32;2.42;;;31.20;77.70;;;;;;5082266;28;20032;-73
2022/07/02 11:21:20;;;;;;;3.80;1.50;;;31.40;77.20;;;;;;5083282;28;20032;-73
2022/07/02 11:23:47;;;;;;;6.32;1.92;;;31.80;78.30;;;;;;5082848;28;20532;-72
2022/07/02 11:26:27;;;;;;;13.70;2.35;;;32.20;78.50;;;;;;5082325;28;20581;-73
2022/07/02 11:28:54;;;;;;;2.33;1.27;;;32.10;77.30;;;;;;5081038;28;20032;-73
2022/07/02 11:31:22;;;;;;;4.47;1.58;;;32.10;78.00;;;;;;5080286;28;20327;-72
2022/07/02 11:33:52;;;;;;;6.07;1.85;;;31.90;77.50;;;;;;5081429;28;20066;-72
2022/07/02 11:36:19;;;;;;;9.25;2.28;;;31.60;77.30;;;;;;5082662;28;20048;-73
2022/07/02 11:38:48;;;;;;;3.75;1.88;;;32.00;78.80;;;;;;5081946;28;20082;-73
2022/07/02 11:41:35;;;;;;;4.90;2.10;;;31.90;77.70;;;;;;5082716;28;20051;-72
2022/07/02 11:44:14;;;;;;;9.13;1.90;;;31.90;78.30;;;;;;5082037;28;20044;-72
2022/07/02 11:46:42;;;;;;;5.07;2.10;;;32.20;78.70;;;;;;5082456;28;20036;-73
2022/07/02 11:49:25;;;;;;;7.55;2.58;;;32.70;79.30;;;;;;5081910;28;20061;-73
2022/07/02 11:51:53;;;;;;;6.10;2.38;;;32.30;79.20;;;;;;5082224;28;20113;-73
2022/07/02 11:54:19;;;;;;;7.95;2.13;;;32.80;79.20;;;;;;5082770;28;20028;-72
2022/07/02 11:56:47;;;;;;;8.07;2.55;;;33.10;78.60;;;;;;5081975;28;20028;-73
2022/07/02 11:59:15;;;;;;;8.20;2.90;;;33.00;77.70;;;;;;5077134;28;20608;-73
2022/07/02 12:01:43;;;;;;;10.52;2.60;;;32.80;77.90;;;;;;5082210;28;20027;-73
2022/07/02 12:04:11;;;;;;;7.78;2.80;;;32.90;78.60;;;;;;5081714;28;20054;-73
2022/07/02 12:06:39;;;;;;;10.40;3.28;;;32.80;77.80;;;;;;5079174;28;20101;-73
2022/07/02 12:09:08;;;;;;;4.90;2.30;;;33.00;78.10;;;;;;5081256;28;20028;-73
2022/07/02 12:11:35;;;;;;;5.45;2.00;;;33.30;76.70;;;;;;5081570;28;20043;-73
2022/07/02 12:14:02;;;;;;;6.15;2.60;;;33.10;77.20;;;;;;5083150;28;20504;-73
2022/07/02 12:16:29;;;;;;;7.07;2.33;;;32.80;77.20;;;;;;5085937;28;20051;-73
2022/07/02 12:19:12;;;;;;;6.20;2.22;;;33.30;78.10;;;;;;5083789;28;20466;-73
2022/07/02 12:21:46;;;;;;;8.98;2.35;;;33.20;76.40;;;;;;5077051;28;20027;-73
2022/07/02 12:24:19;;;;;;;4.78;2.15;;;33.10;75.90;;;;;;5078045;28;20038;-73
2022/07/02 12:26:49;;;;;;;5.53;2.00;;;33.10;75.40;;;;;;5082734;28;20047;-73
2022/07/02 12:32:09;;;;;;;6.30;2.20;;;33.30;75.50;;;;;;5076182;28;20050;-72
2022/07/02 12:34:53;;;;;;;7.07;2.75;;;33.70;76.30;;;;;;5080841;28;20081;-73
2022/07/02 12:37:26;;;;;;;;;;;33.50;74.20;;;;;;5081006;28;20382;-73
2022/07/02 12:40:14;;;;;;;8.00;1.83;;;33.70;73.90;;;;;;5074990;28;19913;-72
2022/07/02 12:42:47;;;;;;;6.28;1.83;;;34.00;74.90;;;;;;5077508;28;20292;-72
2022/07/02 12:45:45;;;;;;;7.63;2.13;;;33.90;73.40;;;;;;5084045;28;20039;-73
2022/07/02 12:48:16;;;;;;;7.18;2.67;;;33.90;74.10;;;;;;5068654;28;20101;-73
2022/07/02 12:50:44;;;;;;;3.70;1.95;;;34.20;74.00;;;;;;5086979;28;20051;-73
2022/07/02 12:53:14;;;;;;;6.60;1.85;;;34.20;73.30;;;;;;5082714;28;20029;-72
2022/07/02 12:55:52;;;;;;;8.00;2.33;;;34.20;74.30;;;;;;5085756;28;20081;-73
2022/07/02 12:58:17;;;;;;;8.23;2.30;;;34.10;72.90;;;;;;5083101;28;20522;-73
2022/07/02 13:00:44;;;;;;;5.38;2.13;;;34.00;72.00;;;;;;5087000;28;20071;-72
2022/07/02 13:03:15;;;;;;;4.07;2.13;;;34.20;72.70;;;;;;5087307;28;20544;-73